createdAt,value
2019-03-05T00:01:11.409Z,47.40
2019-03-05T00:03:41.077Z,51.13
2019-03-05T00:06:10.575Z,50.33
2019-03-05T00:08:39.971Z,54.50
2019-03-05T00:11:09.592Z,53.90
2019-03-05T00:13:39.061Z,54.90
2019-03-05T00:16:08.444Z,59.73
2019-03-05T00:18:37.892Z,59.43
2019-03-05T00:21:07.508Z,56.50
2019-03-05T00:23:51.422Z,63.57
2019-03-05T00:26:32.896Z,60.20
2019-03-05T00:29:22.845Z,62.10
2019-03-05T00:31:52.471Z,61.77
2019-03-05T00:34:53.158Z,69.60
2019-03-05T00:37:39.413Z,62.10
2019-03-05T00:40:40.073Z,67.67
2019-03-05T00:43:39.463Z,81.33
2019-03-05T00:46:37.714Z,68.20
2019-03-05T00:49:16.714Z,64.17
2019-03-05T00:52:30.060Z,71.30
2019-03-05T00:55:35.825Z,67.43
2019-03-05T00:58:23.179Z,74.63
2019-03-05T01:01:17.268Z,75.50
2019-03-05T01:04:13.527Z,72.47
2019-03-05T01:06:42.931Z,73.20
2019-03-05T01:09:17.331Z,70.13
2019-03-05T01:11:47.740Z,74.00
2019-03-05T01:14:17.464Z,74.13
2019-03-05T01:16:47.273Z,82.67
2019-03-05T01:19:16.854Z,77.47
2019-03-05T01:21:46.253Z,84.83
2019-03-05T01:24:16.030Z,78.80
2019-03-05T01:26:45.537Z,80.20
2019-03-05T01:29:15.137Z,70.03
2019-03-05T01:32:03.516Z,73.30
2019-03-05T01:34:46.820Z,77.93
2019-03-05T01:37:16.462Z,77.67
2019-03-05T01:40:13.953Z,77.83
2019-03-05T01:42:43.378Z,70.63
2019-03-05T01:45:14.270Z,72.17
2019-03-05T01:47:43.753Z,68.73
2019-03-05T01:50:15.163Z,72.07
2019-03-05T01:52:44.541Z,66.63
2019-03-05T01:55:13.937Z,70.07
2019-03-05T01:57:46.392Z,68.00
2019-03-05T02:00:16.423Z,76.67
2019-03-05T02:02:46.175Z,60.87
2019-03-05T02:05:18.823Z,66.70
2019-03-05T02:07:48.456Z,55.00
2019-03-05T02:10:19.568Z,60.87
2019-03-05T02:12:49.026Z,63.50
2019-03-05T02:15:18.423Z,59.83
2019-03-05T02:17:48.038Z,57.17
2019-03-05T02:20:25.241Z,60.20
2019-03-05T02:23:37.864Z,58.20
2019-03-05T02:26:33.701Z,53.03
2019-03-05T02:29:25.482Z,62.23
2019-03-05T02:32:37.491Z,66.70
2019-03-05T02:35:31.588Z,61.23
2019-03-05T02:38:35.840Z,59.00
2019-03-05T02:41:25.790Z,56.47
2019-03-05T02:44:33.250Z,60.97
2019-03-05T02:47:39.422Z,57.83
2019-03-05T02:50:48.576Z,62.80
2019-03-05T02:54:01.672Z,65.13
2019-03-05T02:56:45.103Z,58.27
2019-03-05T02:59:12.877Z,58.77
2019-03-05T03:01:59.564Z,54.63
2019-03-05T03:04:32.271Z,60.80
2019-03-05T03:07:01.684Z,56.00
2019-03-05T03:10:06.071Z,56.37
2019-03-05T03:12:35.562Z,54.23
2019-03-05T03:15:06.915Z,58.10
2019-03-05T03:17:36.527Z,51.30
2019-03-05T03:20:06.646Z,54.70
2019-03-05T03:22:36.078Z,58.67
2019-03-05T03:25:06.045Z,52.27
2019-03-05T03:27:35.531Z,54.67
2019-03-05T03:30:05.605Z,56.27
2019-03-05T03:32:35.079Z,57.37
2019-03-05T03:35:05.085Z,58.57
2019-03-05T03:37:34.577Z,57.13
2019-03-05T03:40:06.153Z,59.97
2019-03-05T03:42:35.256Z,56.17
2019-03-05T03:45:05.467Z,57.90
2019-03-05T03:47:35.029Z,55.73
2019-03-05T03:50:04.439Z,70.70
2019-03-05T03:52:33.960Z,56.63
2019-03-05T03:55:03.918Z,52.10
2019-03-05T03:57:33.444Z,57.07
2019-03-05T04:00:03.009Z,51.13
2019-03-05T04:02:32.630Z,50.70
2019-03-05T04:05:02.336Z,51.43
2019-03-05T04:07:31.762Z,54.63
2019-03-05T04:10:01.312Z,54.87
2019-03-05T04:12:30.778Z,60.33
2019-03-05T04:15:00.393Z,58.33
2019-03-05T04:17:30.106Z,64.67
2019-03-05T04:19:59.590Z,54.50
2019-03-05T04:22:29.100Z,55.30
2019-03-05T04:24:58.600Z,56.40
2019-03-05T04:27:28.001Z,60.63
2019-03-05T04:29:57.505Z,51.00
2019-03-05T04:32:27.033Z,57.07
2019-03-05T04:34:56.453Z,52.17
2019-03-05T04:37:25.854Z,62.03
2019-03-05T04:39:55.633Z,62.53
2019-03-05T04:42:25.055Z,52.13
2019-03-05T04:45:02.931Z,55.40
2019-03-05T04:47:32.434Z,60.90
2019-03-05T04:50:20.818Z,57.03
2019-03-05T04:52:50.245Z,62.60
2019-03-05T04:55:19.751Z,67.13
2019-03-05T04:57:49.275Z,56.10
2019-03-05T05:00:20.927Z,52.07
2019-03-05T05:02:50.629Z,62.23
2019-03-05T05:05:20.393Z,62.00
2019-03-05T05:07:49.917Z,70.27
2019-03-05T05:10:19.317Z,61.30
2019-03-05T05:12:48.799Z,63.10
2019-03-05T05:15:29.753Z,66.70
2019-03-05T05:17:59.703Z,62.23
2019-03-05T05:20:29.108Z,76.83
2019-03-05T05:22:58.656Z,64.40
2019-03-05T05:25:28.455Z,69.70
2019-03-05T05:27:58.468Z,76.07
2019-03-05T05:30:37.267Z,72.17
2019-03-05T05:33:07.075Z,74.20
2019-03-05T05:35:36.900Z,70.10
2019-03-05T05:38:06.603Z,62.40
2019-03-05T05:40:39.081Z,75.23
2019-03-05T05:43:28.963Z,87.80
2019-03-05T05:45:58.376Z,73.53
2019-03-05T05:48:27.791Z,70.23
2019-03-05T05:50:57.448Z,79.40
2019-03-05T05:53:26.991Z,73.20
2019-03-05T05:55:57.984Z,79.10
2019-03-05T05:58:27.480Z,78.47
2019-03-05T06:00:58.914Z,68.77
2019-03-05T06:03:28.347Z,78.97
2019-03-05T06:05:57.935Z,86.93
2019-03-05T06:08:27.739Z,86.23
2019-03-05T06:10:57.267Z,94.47
2019-03-05T06:13:27.092Z,100.27
2019-03-05T06:15:57.141Z,93.50
2019-03-05T06:18:26.663Z,86.50
2019-03-05T06:20:56.256Z,80.00
2019-03-05T06:23:26.157Z,72.50
2019-03-05T06:25:58.621Z,68.13
2019-03-05T06:28:29.143Z,66.67
2019-03-05T06:30:58.596Z,72.77
2019-03-05T06:33:28.006Z,89.20
2019-03-05T06:35:57.566Z,63.00
2019-03-05T06:38:27.249Z,82.13
2019-03-05T06:40:56.752Z,61.80
2019-03-05T06:43:28.612Z,73.27
2019-03-05T06:45:58.030Z,64.07
2019-03-05T06:48:27.438Z,61.80
2019-03-05T06:50:56.968Z,58.87
2019-03-05T06:53:26.456Z,72.00
2019-03-05T06:55:56.195Z,61.73
2019-03-05T06:58:25.687Z,61.90
2019-03-05T07:00:57.512Z,64.33
2019-03-05T07:03:27.003Z,70.57
2019-03-05T07:06:32.107Z,58.83
2019-03-05T07:09:08.247Z,64.80
2019-03-05T07:12:14.828Z,68.10
2019-03-05T07:16:04.380Z,56.00
2019-03-05T07:18:43.859Z,57.40
2019-03-05T07:21:55.413Z,58.10
2019-03-05T07:24:57.546Z,58.40
2019-03-05T07:27:38.302Z,59.90
2019-03-05T07:30:17.408Z,56.83
2019-03-05T07:33:01.953Z,53.97
2019-03-05T07:35:37.534Z,44.77
2019-03-05T07:38:08.432Z,49.50
2019-03-05T07:40:37.934Z,50.60
2019-03-05T07:43:07.810Z,48.77
2019-03-05T07:45:37.825Z,49.13
2019-03-05T07:48:07.358Z,47.80
2019-03-05T07:50:36.795Z,47.30
2019-03-05T07:53:06.213Z,51.07
2019-03-05T07:55:35.775Z,56.73
2019-03-05T07:58:05.257Z,48.23
2019-03-05T08:00:34.644Z,49.80
2019-03-05T08:03:04.068Z,50.77
2019-03-05T08:05:33.592Z,45.17
2019-03-05T08:08:38.897Z,56.77
2019-03-05T08:11:08.437Z,47.00
2019-03-05T08:14:03.579Z,51.60
2019-03-05T08:16:32.962Z,55.00
2019-03-05T08:19:02.373Z,51.13
2019-03-05T08:21:32.034Z,56.47
2019-03-05T08:24:01.528Z,57.50
2019-03-05T08:26:30.977Z,58.33
2019-03-05T08:29:02.805Z,56.30
2019-03-05T08:31:31.690Z,72.60
2019-03-05T08:34:01.261Z,66.93
2019-03-05T08:36:30.755Z,52.97
2019-03-05T08:39:00.154Z,56.83
2019-03-05T08:41:32.022Z,67.93
2019-03-05T08:44:03.999Z,58.30
2019-03-05T08:46:33.444Z,55.67
2019-03-05T08:49:02.921Z,51.03
2019-03-05T08:51:32.411Z,54.30
2019-03-05T08:54:01.820Z,52.97
2019-03-05T08:56:31.343Z,46.80
2019-03-05T08:59:00.949Z,44.13
2019-03-05T09:01:30.336Z,49.57
2019-03-05T09:03:59.734Z,50.37
2019-03-05T09:06:29.281Z,50.37
2019-03-05T09:08:58.948Z,44.67
2019-03-05T09:11:28.737Z,49.03
2019-03-05T09:13:58.231Z,55.73
2019-03-05T09:16:27.729Z,48.10
2019-03-05T09:18:57.217Z,46.00
2019-03-05T09:21:26.668Z,47.60
2019-03-05T09:23:56.114Z,49.70
2019-03-05T09:26:25.605Z,43.17
2019-03-05T09:28:55.064Z,46.17
2019-03-05T09:31:24.564Z,43.63
2019-03-05T09:33:54.046Z,39.50
2019-03-05T09:36:23.491Z,44.93
2019-03-05T09:38:52.896Z,43.93
2019-03-05T09:41:22.400Z,39.30
2019-03-05T09:43:51.990Z,40.17
2019-03-05T09:46:21.423Z,46.77
2019-03-05T09:48:50.837Z,41.80
2019-03-05T09:51:20.410Z,40.93
2019-03-05T09:53:49.896Z,40.70
2019-03-05T09:56:19.970Z,41.30
2019-03-05T09:58:49.429Z,28.30
2019-03-05T10:01:19.408Z,15.87
2019-03-05T10:03:48.932Z,25.20
2019-03-05T10:06:18.414Z,19.80
2019-03-05T10:08:47.904Z,24.00
2019-03-05T10:11:17.438Z,25.03
2019-03-05T10:13:46.928Z,28.20
2019-03-05T10:16:16.430Z,21.57
2019-03-05T10:18:45.957Z,26.10
2019-03-05T10:21:16.602Z,27.53
2019-03-05T10:23:47.008Z,19.27
2019-03-05T10:26:18.580Z,22.43
2019-03-05T10:28:47.988Z,22.40
2019-03-05T10:31:18.792Z,22.00
2019-03-05T10:33:48.813Z,18.80
2019-03-05T10:36:18.335Z,20.83
2019-03-05T10:38:56.951Z,19.17
2019-03-05T10:41:19.012Z,16.20
2019-03-05T10:43:48.565Z,19.20
2019-03-05T10:46:18.038Z,18.10
2019-03-05T10:48:47.549Z,15.53
2019-03-05T10:51:17.052Z,20.00
2019-03-05T10:53:46.526Z,16.50
2019-03-05T10:56:16.281Z,19.40
2019-03-05T10:58:45.721Z,16.00
2019-03-05T11:01:16.061Z,14.07
2019-03-05T11:03:45.777Z,13.73
2019-03-05T11:06:15.160Z,18.47
2019-03-05T11:08:44.668Z,15.40
2019-03-05T11:11:14.297Z,14.97
2019-03-05T11:13:44.367Z,13.93
2019-03-05T11:16:13.840Z,13.07
2019-03-05T11:18:43.270Z,10.80
2019-03-05T11:21:12.753Z,19.17
2019-03-05T11:23:42.308Z,11.67
2019-03-05T11:26:11.821Z,11.87
2019-03-05T11:28:41.369Z,11.20
2019-03-05T11:31:10.744Z,27.67
2019-03-05T11:33:40.172Z,15.40
2019-03-05T11:36:09.742Z,14.33
2019-03-05T11:38:39.205Z,10.47
2019-03-05T11:41:08.655Z,10.67
2019-03-05T11:43:38.056Z,9.90
2019-03-05T11:46:15.110Z,9.47
2019-03-05T11:48:44.679Z,11.60
2019-03-05T11:51:14.145Z,8.60
2019-03-05T11:53:43.691Z,10.57
2019-03-05T11:56:13.165Z,9.27
2019-03-05T11:58:42.625Z,11.50
2019-03-05T12:01:18.583Z,9.37
2019-03-05T12:03:48.481Z,7.30
2019-03-05T12:06:17.953Z,10.80
2019-03-05T12:08:47.362Z,11.03
2019-03-05T12:11:16.873Z,11.13
2019-03-05T12:13:46.427Z,9.17
2019-03-05T12:16:16.240Z,10.77
2019-03-05T12:18:45.719Z,12.97
2019-03-05T12:21:15.289Z,11.23
2019-03-05T12:23:47.247Z,12.93
2019-03-05T12:26:15.901Z,13.00
2019-03-05T12:28:45.296Z,17.80
2019-03-05T12:31:14.877Z,19.90
2019-03-05T12:33:44.384Z,13.33
2019-03-05T12:36:13.846Z,18.10
2019-03-05T12:38:43.210Z,17.43
2019-03-05T12:41:12.759Z,11.37
2019-03-05T12:43:42.205Z,11.13
2019-03-05T12:46:11.609Z,7.97
2019-03-05T12:48:41.077Z,8.37
2019-03-05T12:51:11.023Z,8.00
2019-03-05T12:53:40.499Z,7.57
2019-03-05T12:56:09.891Z,11.13
2019-03-05T12:58:39.317Z,7.00
2019-03-05T13:01:09.726Z,9.17
2019-03-05T13:03:39.204Z,8.00
2019-03-05T13:06:08.628Z,8.23
2019-03-05T13:08:38.040Z,6.60
2019-03-05T13:11:09.499Z,8.60
2019-03-05T13:13:38.805Z,8.73
2019-03-05T13:16:08.186Z,8.53
2019-03-05T13:18:37.607Z,7.20
2019-03-05T13:21:07.663Z,9.00
2019-03-05T13:23:38.140Z,9.53
2019-03-05T13:26:09.012Z,9.03
2019-03-05T13:28:40.561Z,6.73
2019-03-05T13:31:10.045Z,6.23
2019-03-05T13:33:41.975Z,10.07
2019-03-05T13:36:12.482Z,6.67
2019-03-05T13:38:45.317Z,5.17
2019-03-05T13:41:15.653Z,7.60
2019-03-05T13:43:44.809Z,6.53
2019-03-05T13:46:14.297Z,9.97
2019-03-05T13:49:09.071Z,8.90
2019-03-05T13:52:40.237Z,8.53
2019-03-05T13:55:41.898Z,7.90
2019-03-05T13:58:52.115Z,8.23
2019-03-05T14:01:21.687Z,14.17
2019-03-05T14:04:13.579Z,13.57
2019-03-05T14:07:11.581Z,16.07
2019-03-05T14:09:40.361Z,16.00
2019-03-05T14:12:09.784Z,11.50
2019-03-05T14:14:39.329Z,13.37
2019-03-05T14:17:18.533Z,12.90
2019-03-05T14:19:47.968Z,13.17
2019-03-05T14:22:17.397Z,6.03
2019-03-05T14:24:46.884Z,7.97
2019-03-05T14:27:16.771Z,9.23
2019-03-05T14:29:46.341Z,7.17
2019-03-05T14:32:15.766Z,6.83
2019-03-05T14:34:55.627Z,9.03
2019-03-05T14:37:28.457Z,9.33
2019-03-05T14:40:18.711Z,9.67
2019-03-05T14:42:30.995Z,7.87
2019-03-05T14:45:00.722Z,14.20
2019-03-05T14:47:30.332Z,15.93
2019-03-05T14:49:59.819Z,11.47
2019-03-05T14:52:29.266Z,8.90
2019-03-05T14:54:58.849Z,13.27
2019-03-05T14:57:28.337Z,12.73
2019-03-05T14:59:57.840Z,11.30
2019-03-05T15:02:27.277Z,13.53
2019-03-05T15:04:56.740Z,14.63
2019-03-05T15:07:26.216Z,11.30
2019-03-05T15:09:55.740Z,13.30
2019-03-05T15:12:25.221Z,15.73
2019-03-05T15:14:54.588Z,16.17
2019-03-05T15:17:24.032Z,16.87
2019-03-05T15:19:53.558Z,16.50
2019-03-05T15:22:23.047Z,14.57
2019-03-05T15:24:52.535Z,14.23
2019-03-05T15:27:22.023Z,12.93
2019-03-05T15:29:51.561Z,14.33
2019-03-05T15:32:20.995Z,16.20
2019-03-05T15:34:50.559Z,20.67
2019-03-05T15:37:20.231Z,15.73
2019-03-05T15:39:49.637Z,22.67
2019-03-05T15:42:19.120Z,14.10
2019-03-05T15:44:48.613Z,19.57
2019-03-05T15:47:18.065Z,38.20
2019-03-05T15:49:47.738Z,45.17
2019-03-05T15:52:17.213Z,31.77
2019-03-05T15:54:46.726Z,29.13
2019-03-05T15:57:16.209Z,27.77
2019-03-05T15:59:45.629Z,47.07
2019-03-05T16:02:15.308Z,32.80
2019-03-05T16:04:44.822Z,58.33
2019-03-05T16:07:14.452Z,31.00
2019-03-05T16:09:44.123Z,21.83
2019-03-05T16:12:13.546Z,36.10
2019-03-05T16:14:42.948Z,24.00
2019-03-05T16:17:12.391Z,21.20
2019-03-05T16:19:41.927Z,22.40
2019-03-05T16:22:14.324Z,27.17
2019-03-05T16:24:42.523Z,24.50
2019-03-05T16:27:12.015Z,22.47
2019-03-05T16:29:41.516Z,32.20
2019-03-05T16:32:29.921Z,37.87
2019-03-05T16:35:18.430Z,37.07
2019-03-05T16:37:57.768Z,35.47
2019-03-05T16:40:55.659Z,29.80
2019-03-05T16:43:40.633Z,38.10
2019-03-05T16:46:32.321Z,39.43
2019-03-05T16:49:29.858Z,37.00
2019-03-05T16:52:10.796Z,49.50
2019-03-05T16:54:47.112Z,54.20
2019-03-05T16:57:47.616Z,57.73
2019-03-05T17:00:34.848Z,55.03
2019-03-05T17:03:26.130Z,30.97
2019-03-05T17:06:14.638Z,26.00
2019-03-05T17:09:21.245Z,31.57
2019-03-05T17:11:55.560Z,32.40
2019-03-05T17:14:24.989Z,31.07
2019-03-05T17:16:54.573Z,32.17
2019-03-05T17:19:24.112Z,30.83
2019-03-05T17:21:53.552Z,27.23
2019-03-05T17:24:23.227Z,25.93
2019-03-05T17:26:53.325Z,23.70
2019-03-05T17:29:23.945Z,27.30
2019-03-05T17:31:53.499Z,22.13
2019-03-05T17:34:24.341Z,23.77
2019-03-05T17:36:53.840Z,26.90
2019-03-05T17:39:25.494Z,24.67
2019-03-05T17:41:55.034Z,23.60
2019-03-05T17:44:24.608Z,22.77
2019-03-05T17:46:54.072Z,28.80
2019-03-05T17:49:24.014Z,22.57
2019-03-05T17:51:53.492Z,18.03
2019-03-05T17:54:23.007Z,19.80
2019-03-05T17:56:52.696Z,18.77
2019-03-05T17:59:22.142Z,18.00
2019-03-05T18:01:52.012Z,19.67
2019-03-05T18:04:21.552Z,22.53
2019-03-05T18:06:51.000Z,22.87
2019-03-05T18:09:20.430Z,21.37
2019-03-05T18:11:50.358Z,22.77
2019-03-05T18:14:20.169Z,27.93
2019-03-05T18:16:51.056Z,45.20
2019-03-05T18:19:20.513Z,23.87
2019-03-05T18:21:49.969Z,25.90
2019-03-05T18:24:19.465Z,31.43
2019-03-05T18:26:49.331Z,26.73
2019-03-05T18:29:19.226Z,25.27
2019-03-05T18:31:48.865Z,19.13
2019-03-05T18:34:18.510Z,27.63
2019-03-05T18:36:47.969Z,20.20
2019-03-05T18:39:18.050Z,17.37
2019-03-05T18:41:47.625Z,25.20
2019-03-05T18:44:17.240Z,26.73
2019-03-05T18:46:46.785Z,21.50
2019-03-05T18:49:16.236Z,18.93
2019-03-05T18:51:46.250Z,26.80
2019-03-05T18:54:16.119Z,23.47
2019-03-05T18:56:45.653Z,24.17
2019-03-05T18:59:15.183Z,17.07
2019-03-05T19:01:44.628Z,19.53
2019-03-05T19:04:14.069Z,20.50
2019-03-05T19:06:43.694Z,18.53
2019-03-05T19:09:13.372Z,19.47
2019-03-05T19:11:42.858Z,22.03
2019-03-05T19:14:12.271Z,27.70
2019-03-05T19:16:41.768Z,27.00
2019-03-05T19:19:11.601Z,20.43
2019-03-05T19:21:41.051Z,18.47
2019-03-05T19:24:10.466Z,21.30
2019-03-05T19:26:40.060Z,22.60
2019-03-05T19:29:09.689Z,25.93
2019-03-05T19:31:39.332Z,18.97
2019-03-05T19:34:08.846Z,26.63
2019-03-05T19:36:38.296Z,22.03
2019-03-05T19:39:07.969Z,23.17
2019-03-05T19:41:37.480Z,21.60
2019-03-05T19:44:07.021Z,23.17
2019-03-05T19:46:37.662Z,17.97
2019-03-05T19:49:07.150Z,21.87
2019-03-05T19:51:36.645Z,24.23
2019-03-05T19:54:06.538Z,22.40
2019-03-05T19:56:36.468Z,31.70
2019-03-05T19:59:06.208Z,23.33
2019-03-05T20:01:38.640Z,23.63
2019-03-05T20:04:11.631Z,25.43
2019-03-05T20:06:39.449Z,24.97
2019-03-05T20:09:10.290Z,24.33
2019-03-05T20:11:39.838Z,25.90
2019-03-05T20:14:09.286Z,22.73
2019-03-05T20:16:38.951Z,26.77
2019-03-05T20:19:10.340Z,26.77
2019-03-05T20:21:39.807Z,22.27
2019-03-05T20:24:09.209Z,22.70
2019-03-05T20:26:39.132Z,21.43
2019-03-05T20:29:08.652Z,22.93
2019-03-05T20:31:38.103Z,24.90
2019-03-05T20:34:07.562Z,24.00
2019-03-05T20:36:37.049Z,26.80
2019-03-05T20:39:07.760Z,27.33
2019-03-05T20:41:37.264Z,34.00
2019-03-05T20:44:07.831Z,29.90
2019-03-05T20:46:37.300Z,28.20
2019-03-05T20:49:06.874Z,29.53
2019-03-05T20:51:36.317Z,34.87
2019-03-05T20:54:05.878Z,27.63
2019-03-05T20:56:35.381Z,29.90
2019-03-05T20:59:04.894Z,28.27
2019-03-05T21:01:34.454Z,21.63
2019-03-05T21:04:04.284Z,25.67
2019-03-05T21:06:33.716Z,22.37
2019-03-05T21:09:03.317Z,28.73
2019-03-05T21:11:33.126Z,23.80
2019-03-05T21:14:02.723Z,25.83
2019-03-05T21:16:32.673Z,23.33
2019-03-05T21:19:02.159Z,24.63
2019-03-05T21:21:31.738Z,34.10
2019-03-05T21:24:01.232Z,31.17
2019-03-05T21:26:30.721Z,29.47
2019-03-05T21:29:00.113Z,25.93
2019-03-05T21:31:29.552Z,28.70
2019-03-05T21:33:59.031Z,29.57
2019-03-05T21:36:28.614Z,25.33
2019-03-05T21:38:58.124Z,27.67
2019-03-05T21:41:27.660Z,31.40
2019-03-05T21:43:57.062Z,28.90
2019-03-05T21:46:26.530Z,31.57
2019-03-05T21:48:56.107Z,32.17
2019-03-05T21:51:25.744Z,32.73
2019-03-05T21:53:55.157Z,30.27
2019-03-05T21:56:24.755Z,37.23
2019-03-05T21:58:54.250Z,26.23
2019-03-05T22:01:23.715Z,28.30
2019-03-05T22:03:53.617Z,27.00
2019-03-05T22:06:23.061Z,31.20
2019-03-05T22:08:52.545Z,24.10
2019-03-05T22:11:22.067Z,21.87
2019-03-05T22:13:51.537Z,26.20
2019-03-05T22:16:20.999Z,26.00
2019-03-05T22:18:50.450Z,22.83
2019-03-05T22:21:19.884Z,25.87
2019-03-05T22:23:49.380Z,20.57
2019-03-05T22:26:18.864Z,27.37
2019-03-05T22:28:48.294Z,20.77
2019-03-05T22:31:17.804Z,25.47
2019-03-05T22:33:47.311Z,25.37
2019-03-05T22:36:16.751Z,25.47
2019-03-05T22:38:46.327Z,25.43
2019-03-05T22:41:15.827Z,25.90
2019-03-05T22:43:45.421Z,27.93
2019-03-05T22:46:14.863Z,18.40
2019-03-05T22:48:44.300Z,23.43
2019-03-05T22:51:13.861Z,27.17
2019-03-05T22:53:43.326Z,26.63
2019-03-05T22:56:12.822Z,27.00
2019-03-05T22:58:42.306Z,25.80
2019-03-05T23:01:19.556Z,23.77
2019-03-05T23:03:59.501Z,23.87
2019-03-05T23:06:29.682Z,29.43
2019-03-05T23:08:59.304Z,27.60
2019-03-05T23:11:29.720Z,26.70
2019-03-05T23:13:59.187Z,27.37
2019-03-05T23:16:29.125Z,26.93
2019-03-05T23:18:58.619Z,23.13
2019-03-05T23:21:28.223Z,22.87
2019-03-05T23:23:57.618Z,25.73
2019-03-05T23:26:27.066Z,28.93
2019-03-05T23:28:56.593Z,29.00
2019-03-05T23:31:26.043Z,29.50
2019-03-05T23:33:55.439Z,33.53
2019-03-05T23:36:24.932Z,33.53
2019-03-05T23:38:54.418Z,45.00
2019-03-05T23:41:23.979Z,37.67
2019-03-05T23:43:53.397Z,27.70
2019-03-05T23:46:22.851Z,23.37
2019-03-05T23:48:52.341Z,20.30
2019-03-05T23:51:21.829Z,13.30
2019-03-05T23:53:51.221Z,13.33
2019-03-05T23:56:20.962Z,13.70
2019-03-05T23:58:50.497Z,11.33
